sensor_id;sensor_type;location;lat;lon;timestamp;P1;durP1;ratioP1;P2;durP2;ratioP2
16662;SDS011;8445;51.270;9.434;2022-07-23T00:02:08;14.18;;;9.95;;
16662;SDS011;8445;51.270;9.434;2022-07-23T00:04:34;15.77;;;9.68;;
16662;SDS011;8445;51.270;9.434;2022-07-23T00:07:00;13.82;;;9.85;;
16662;SDS011;8445;51.270;9.434;2022-07-23T00:09:26;12.90;;;9.65;;
16662;SDS011;8445;51.270;9.434;2022-07-23T00:11:53;16.85;;;10.15;;
16662;SDS011;8445;51.270;9.434;2022-07-23T00:14:19;13.00;;;9.32;;
16662;SDS011;8445;51.270;9.434;2022-07-23T00:16:45;14.23;;;10.27;;
16662;SDS011;8445;51.270;9.434;2022-07-23T00:19:11;15.23;;;10.32;;
16662;SDS011;8445;51.270;9.434;2022-07-23T00:21:37;18.88;;;10.93;;
16662;SDS011;8445;51.270;9.434;2022-07-23T00:24:02;19.23;;;10.45;;
16662;SDS011;8445;51.270;9.434;2022-07-23T00:26:29;14.05;;;10.52;;
16662;SDS011;8445;51.270;9.434;2022-07-23T00:28:55;15.60;;;10.02;;
16662;SDS011;8445;51.270;9.434;2022-07-23T00:31:21;20.02;;;11.05;;
16662;SDS011;8445;51.270;9.434;2022-07-23T00:33:46;13.32;;;10.13;;
16662;SDS011;8445;51.270;9.434;2022-07-23T00:36:12;13.50;;;9.85;;
16662;SDS011;8445;51.270;9.434;2022-07-23T00:38:38;11.18;;;9.45;;
16662;SDS011;8445;51.270;9.434;2022-07-23T00:41:05;14.35;;;10.15;;
16662;SDS011;8445;51.270;9.434;2022-07-23T00:43:30;14.48;;;10.65;;
16662;SDS011;8445;51.270;9.434;2022-07-23T00:45:56;15.38;;;10.40;;
16662;SDS011;8445;51.270;9.434;2022-07-23T00:48:22;14.05;;;10.40;;
16662;SDS011;8445;51.270;9.434;2022-07-23T00:50:48;15.73;;;10.25;;
16662;SDS011;8445;51.270;9.434;2022-07-23T00:53:14;12.43;;;10.52;;
16662;SDS011;8445;51.270;9.434;2022-07-23T00:55:41;20.00;;;10.57;;
16662;SDS011;8445;51.270;9.434;2022-07-23T00:58:07;14.80;;;10.60;;
16662;SDS011;8445;51.270;9.434;2022-07-23T01:00:34;14.05;;;9.27;;
16662;SDS011;8445;51.270;9.434;2022-07-23T01:03:00;16.67;;;10.50;;
16662;SDS011;8445;51.270;9.434;2022-07-23T01:05:26;14.52;;;10.38;;
16662;SDS011;8445;51.270;9.434;2022-07-23T01:07:52;14.00;;;9.82;;
16662;SDS011;8445;51.270;9.434;2022-07-23T01:10:18;11.23;;;7.97;;
16662;SDS011;8445;51.270;9.434;2022-07-23T01:12:57;9.70;;;8.48;;
16662;SDS011;8445;51.270;9.434;2022-07-23T01:15:35;9.15;;;7.72;;
16662;SDS011;8445;51.270;9.434;2022-07-23T01:18:03;9.35;;;7.90;;
16662;SDS011;8445;51.270;9.434;2022-07-23T01:20:32;12.63;;;9.20;;
16662;SDS011;8445;51.270;9.434;2022-07-23T01:23:00;13.48;;;7.57;;
16662;SDS011;8445;51.270;9.434;2022-07-23T01:25:26;13.25;;;7.55;;
16662;SDS011;8445;51.270;9.434;2022-07-23T01:27:58;14.10;;;7.75;;
16662;SDS011;8445;51.270;9.434;2022-07-23T01:30:24;11.65;;;8.15;;
16662;SDS011;8445;51.270;9.434;2022-07-23T01:32:50;10.55;;;7.93;;
16662;SDS011;8445;51.270;9.434;2022-07-23T01:35:16;12.25;;;7.60;;
16662;SDS011;8445;51.270;9.434;2022-07-23T01:37:42;10.30;;;8.73;;
16662;SDS011;8445;51.270;9.434;2022-07-23T01:40:09;10.60;;;7.47;;
16662;SDS011;8445;51.270;9.434;2022-07-23T01:42:36;14.90;;;8.32;;
16662;SDS011;8445;51.270;9.434;2022-07-23T01:45:03;13.23;;;7.97;;
16662;SDS011;8445;51.270;9.434;2022-07-23T01:47:31;13.65;;;7.90;;
16662;SDS011;8445;51.270;9.434;2022-07-23T01:49:57;14.45;;;8.85;;
16662;SDS011;8445;51.270;9.434;2022-07-23T01:52:41;10.90;;;9.40;;
16662;SDS011;8445;51.270;9.434;2022-07-23T01:55:07;15.32;;;9.25;;
16662;SDS011;8445;51.270;9.434;2022-07-23T01:57:36;14.98;;;8.75;;
16662;SDS011;8445;51.270;9.434;2022-07-23T02:00:02;12.43;;;8.65;;
16662;SDS011;8445;51.270;9.434;2022-07-23T02:02:38;12.38;;;8.77;;
16662;SDS011;8445;51.270;9.434;2022-07-23T02:05:04;12.55;;;8.40;;
16662;SDS011;8445;51.270;9.434;2022-07-23T02:07:31;10.32;;;8.98;;
16662;SDS011;8445;51.270;9.434;2022-07-23T02:09:58;18.90;;;10.80;;
16662;SDS011;8445;51.270;9.434;2022-07-23T02:12:24;16.95;;;10.98;;
16662;SDS011;8445;51.270;9.434;2022-07-23T02:14:49;13.93;;;10.18;;
16662;SDS011;8445;51.270;9.434;2022-07-23T02:17:15;21.38;;;11.32;;
16662;SDS011;8445;51.270;9.434;2022-07-23T02:19:41;18.88;;;12.23;;
16662;SDS011;8445;51.270;9.434;2022-07-23T02:22:07;19.17;;;11.05;;
16662;SDS011;8445;51.270;9.434;2022-07-23T02:24:33;23.13;;;12.82;;
16662;SDS011;8445;51.270;9.434;2022-07-23T02:26:59;22.02;;;12.93;;
16662;SDS011;8445;51.270;9.434;2022-07-23T02:29:25;19.70;;;13.85;;
16662;SDS011;8445;51.270;9.434;2022-07-23T02:31:53;18.58;;;13.15;;
16662;SDS011;8445;51.270;9.434;2022-07-23T02:34:19;22.38;;;13.15;;
16662;SDS011;8445;51.270;9.434;2022-07-23T02:36:45;20.77;;;13.68;;
16662;SDS011;8445;51.270;9.434;2022-07-23T02:39:11;27.50;;;13.88;;
16662;SDS011;8445;51.270;9.434;2022-07-23T02:41:37;20.85;;;14.27;;
16662;SDS011;8445;51.270;9.434;2022-07-23T02:44:03;19.25;;;13.27;;
16662;SDS011;8445;51.270;9.434;2022-07-23T02:46:30;23.05;;;14.20;;
16662;SDS011;8445;51.270;9.434;2022-07-23T02:48:56;18.50;;;13.75;;
16662;SDS011;8445;51.270;9.434;2022-07-23T02:51:22;23.45;;;14.50;;
16662;SDS011;8445;51.270;9.434;2022-07-23T02:53:53;20.35;;;13.75;;
16662;SDS011;8445;51.270;9.434;2022-07-23T02:56:20;24.48;;;14.85;;
16662;SDS011;8445;51.270;9.434;2022-07-23T02:58:46;31.55;;;14.45;;
16662;SDS011;8445;51.270;9.434;2022-07-23T03:01:12;24.40;;;14.60;;
16662;SDS011;8445;51.270;9.434;2022-07-23T03:03:38;24.83;;;14.85;;
16662;SDS011;8445;51.270;9.434;2022-07-23T03:06:04;20.48;;;13.10;;
16662;SDS011;8445;51.270;9.434;2022-07-23T03:08:31;19.98;;;13.38;;
16662;SDS011;8445;51.270;9.434;2022-07-23T03:10:56;19.50;;;13.52;;
16662;SDS011;8445;51.270;9.434;2022-07-23T03:13:23;16.00;;;12.40;;
16662;SDS011;8445;51.270;9.434;2022-07-23T03:15:49;24.60;;;14.27;;
16662;SDS011;8445;51.270;9.434;2022-07-23T03:18:15;22.33;;;13.82;;
16662;SDS011;8445;51.270;9.434;2022-07-23T03:20:40;21.88;;;13.32;;
16662;SDS011;8445;51.270;9.434;2022-07-23T03:23:08;20.02;;;13.88;;
16662;SDS011;8445;51.270;9.434;2022-07-23T03:25:34;21.58;;;14.48;;
16662;SDS011;8445;51.270;9.434;2022-07-23T03:28:00;19.30;;;12.50;;
16662;SDS011;8445;51.270;9.434;2022-07-23T03:30:27;18.38;;;12.52;;
16662;SDS011;8445;51.270;9.434;2022-07-23T03:32:53;16.30;;;13.27;;
16662;SDS011;8445;51.270;9.434;2022-07-23T03:35:19;24.23;;;14.02;;
16662;SDS011;8445;51.270;9.434;2022-07-23T03:37:57;21.48;;;11.80;;
16662;SDS011;8445;51.270;9.434;2022-07-23T03:40:25;18.58;;;12.85;;
16662;SDS011;8445;51.270;9.434;2022-07-23T03:42:51;20.70;;;14.05;;
16662;SDS011;8445;51.270;9.434;2022-07-23T03:45:17;25.45;;;15.15;;
16662;SDS011;8445;51.270;9.434;2022-07-23T03:47:42;25.17;;;15.32;;
16662;SDS011;8445;51.270;9.434;2022-07-23T03:50:09;25.90;;;16.15;;
16662;SDS011;8445;51.270;9.434;2022-07-23T03:52:35;24.52;;;15.90;;
16662;SDS011;8445;51.270;9.434;2022-07-23T03:55:02;25.35;;;17.42;;
16662;SDS011;8445;51.270;9.434;2022-07-23T03:57:29;26.55;;;16.92;;
16662;SDS011;8445;51.270;9.434;2022-07-23T03:59:55;19.05;;;14.88;;
16662;SDS011;8445;51.270;9.434;2022-07-23T04:02:21;23.38;;;13.50;;
16662;SDS011;8445;51.270;9.434;2022-07-23T04:04:49;20.52;;;13.88;;
16662;SDS011;8445;51.270;9.434;2022-07-23T04:07:15;18.95;;;14.75;;
16662;SDS011;8445;51.270;9.434;2022-07-23T04:09:42;25.38;;;14.93;;
16662;SDS011;8445;51.270;9.434;2022-07-23T04:12:09;22.13;;;15.48;;
16662;SDS011;8445;51.270;9.434;2022-07-23T04:14:35;25.60;;;17.05;;
16662;SDS011;8445;51.270;9.434;2022-07-23T04:17:01;25.92;;;16.38;;
16662;SDS011;8445;51.270;9.434;2022-07-23T04:19:28;19.65;;;14.85;;
16662;SDS011;8445;51.270;9.434;2022-07-23T04:22:02;22.70;;;15.95;;
16662;SDS011;8445;51.270;9.434;2022-07-23T04:24:31;27.73;;;18.23;;
16662;SDS011;8445;51.270;9.434;2022-07-23T04:26:57;25.52;;;16.55;;
16662;SDS011;8445;51.270;9.434;2022-07-23T04:29:24;23.98;;;18.45;;
16662;SDS011;8445;51.270;9.434;2022-07-23T04:31:49;22.50;;;16.33;;
16662;SDS011;8445;51.270;9.434;2022-07-23T04:34:16;23.15;;;15.20;;
16662;SDS011;8445;51.270;9.434;2022-07-23T04:36:42;22.30;;;16.88;;
16662;SDS011;8445;51.270;9.434;2022-07-23T04:39:08;26.48;;;16.90;;
16662;SDS011;8445;51.270;9.434;2022-07-23T04:41:34;20.92;;;15.88;;
16662;SDS011;8445;51.270;9.434;2022-07-23T04:44:00;19.27;;;15.20;;
16662;SDS011;8445;51.270;9.434;2022-07-23T04:46:27;24.98;;;15.05;;
16662;SDS011;8445;51.270;9.434;2022-07-23T04:48:54;19.88;;;14.43;;
16662;SDS011;8445;51.270;9.434;2022-07-23T04:51:20;21.67;;;14.02;;
16662;SDS011;8445;51.270;9.434;2022-07-23T04:53:46;25.67;;;15.55;;
16662;SDS011;8445;51.270;9.434;2022-07-23T04:56:12;23.52;;;15.85;;
16662;SDS011;8445;51.270;9.434;2022-07-23T04:58:38;22.02;;;15.98;;
16662;SDS011;8445;51.270;9.434;2022-07-23T05:01:04;23.50;;;15.73;;
16662;SDS011;8445;51.270;9.434;2022-07-23T05:03:32;19.15;;;14.52;;
16662;SDS011;8445;51.270;9.434;2022-07-23T05:05:58;24.85;;;16.50;;
16662;SDS011;8445;51.270;9.434;2022-07-23T05:08:25;22.52;;;14.93;;
16662;SDS011;8445;51.270;9.434;2022-07-23T05:10:54;19.35;;;13.90;;
16662;SDS011;8445;51.270;9.434;2022-07-23T05:13:20;16.90;;;13.73;;
16662;SDS011;8445;51.270;9.434;2022-07-23T05:15:49;19.45;;;14.48;;
16662;SDS011;8445;51.270;9.434;2022-07-23T05:18:15;17.58;;;12.93;;
16662;SDS011;8445;51.270;9.434;2022-07-23T05:20:42;20.73;;;12.52;;
16662;SDS011;8445;51.270;9.434;2022-07-23T05:23:11;20.70;;;14.13;;
16662;SDS011;8445;51.270;9.434;2022-07-23T05:25:37;20.77;;;14.85;;
16662;SDS011;8445;51.270;9.434;2022-07-23T05:28:03;23.02;;;14.80;;
16662;SDS011;8445;51.270;9.434;2022-07-23T05:30:29;16.02;;;13.30;;
16662;SDS011;8445;51.270;9.434;2022-07-23T05:33:00;17.50;;;12.60;;
16662;SDS011;8445;51.270;9.434;2022-07-23T05:35:26;18.60;;;12.38;;
16662;SDS011;8445;51.270;9.434;2022-07-23T05:38:31;14.02;;;11.68;;
16662;SDS011;8445;51.270;9.434;2022-07-23T05:40:59;18.02;;;13.25;;
16662;SDS011;8445;51.270;9.434;2022-07-23T05:43:26;16.65;;;11.63;;
16662;SDS011;8445;51.270;9.434;2022-07-23T05:45:53;16.35;;;12.10;;
16662;SDS011;8445;51.270;9.434;2022-07-23T05:48:19;16.00;;;11.73;;
16662;SDS011;8445;51.270;9.434;2022-07-23T05:51:08;20.95;;;11.68;;
16662;SDS011;8445;51.270;9.434;2022-07-23T05:53:34;16.73;;;10.35;;
16662;SDS011;8445;51.270;9.434;2022-07-23T05:56:05;15.15;;;9.75;;
16662;SDS011;8445;51.270;9.434;2022-07-23T05:58:31;14.10;;;9.48;;
16662;SDS011;8445;51.270;9.434;2022-07-23T06:00:57;18.98;;;10.38;;
16662;SDS011;8445;51.270;9.434;2022-07-23T06:03:23;14.77;;;10.20;;
16662;SDS011;8445;51.270;9.434;2022-07-23T06:05:50;14.40;;;9.68;;
16662;SDS011;8445;51.270;9.434;2022-07-23T06:08:16;15.13;;;9.80;;
16662;SDS011;8445;51.270;9.434;2022-07-23T06:10:42;14.32;;;9.73;;
16662;SDS011;8445;51.270;9.434;2022-07-23T06:13:08;12.68;;;9.45;;
16662;SDS011;8445;51.270;9.434;2022-07-23T06:15:34;11.18;;;8.63;;
16662;SDS011;8445;51.270;9.434;2022-07-23T06:18:00;12.73;;;8.18;;
16662;SDS011;8445;51.270;9.434;2022-07-23T06:20:26;12.38;;;8.75;;
16662;SDS011;8445;51.270;9.434;2022-07-23T06:22:52;14.55;;;9.13;;
16662;SDS011;8445;51.270;9.434;2022-07-23T06:25:18;13.88;;;8.15;;
16662;SDS011;8445;51.270;9.434;2022-07-23T06:27:45;11.85;;;8.77;;
16662;SDS011;8445;51.270;9.434;2022-07-23T06:30:13;10.23;;;8.63;;
16662;SDS011;8445;51.270;9.434;2022-07-23T06:32:41;10.05;;;7.93;;
16662;SDS011;8445;51.270;9.434;2022-07-23T06:35:07;9.77;;;7.97;;
16662;SDS011;8445;51.270;9.434;2022-07-23T06:37:33;11.18;;;7.60;;
16662;SDS011;8445;51.270;9.434;2022-07-23T06:40:00;17.35;;;8.25;;
16662;SDS011;8445;51.270;9.434;2022-07-23T06:42:26;13.43;;;8.10;;
16662;SDS011;8445;51.270;9.434;2022-07-23T06:44:56;8.82;;;7.00;;
16662;SDS011;8445;51.270;9.434;2022-07-23T06:47:22;13.68;;;9.30;;
16662;SDS011;8445;51.270;9.434;2022-07-23T06:49:48;12.70;;;8.68;;
16662;SDS011;8445;51.270;9.434;2022-07-23T06:52:16;12.88;;;8.82;;
16662;SDS011;8445;51.270;9.434;2022-07-23T06:54:42;15.02;;;8.80;;
16662;SDS011;8445;51.270;9.434;2022-07-23T06:57:08;11.35;;;8.77;;
16662;SDS011;8445;51.270;9.434;2022-07-23T06:59:33;13.05;;;8.18;;
16662;SDS011;8445;51.270;9.434;2022-07-23T07:02:01;13.70;;;8.35;;
16662;SDS011;8445;51.270;9.434;2022-07-23T07:04:27;11.68;;;8.45;;
16662;SDS011;8445;51.270;9.434;2022-07-23T07:06:53;13.45;;;8.68;;
16662;SDS011;8445;51.270;9.434;2022-07-23T07:09:22;8.80;;;7.68;;
16662;SDS011;8445;51.270;9.434;2022-07-23T07:11:48;9.57;;;8.43;;
16662;SDS011;8445;51.270;9.434;2022-07-23T07:14:14;12.57;;;8.43;;
16662;SDS011;8445;51.270;9.434;2022-07-23T07:16:40;14.43;;;8.05;;
16662;SDS011;8445;51.270;9.434;2022-07-23T07:19:06;9.15;;;7.35;;
16662;SDS011;8445;51.270;9.434;2022-07-23T07:21:32;10.43;;;7.45;;
16662;SDS011;8445;51.270;9.434;2022-07-23T07:23:57;8.48;;;6.40;;
16662;SDS011;8445;51.270;9.434;2022-07-23T07:26:24;9.70;;;5.85;;
16662;SDS011;8445;51.270;9.434;2022-07-23T07:28:50;8.77;;;6.28;;
16662;SDS011;8445;51.270;9.434;2022-07-23T07:31:15;10.63;;;6.20;;
16662;SDS011;8445;51.270;9.434;2022-07-23T07:33:41;6.93;;;5.32;;
16662;SDS011;8445;51.270;9.434;2022-07-23T07:36:07;8.95;;;5.57;;
16662;SDS011;8445;51.270;9.434;2022-07-23T07:38:34;7.60;;;5.95;;
16662;SDS011;8445;51.270;9.434;2022-07-23T07:40:59;5.85;;;5.00;;
16662;SDS011;8445;51.270;9.434;2022-07-23T07:43:25;7.10;;;5.18;;
16662;SDS011;8445;51.270;9.434;2022-07-23T07:45:52;4.63;;;4.15;;
16662;SDS011;8445;51.270;9.434;2022-07-23T07:48:32;4.93;;;4.05;;
16662;SDS011;8445;51.270;9.434;2022-07-23T07:50:58;4.70;;;4.30;;
16662;SDS011;8445;51.270;9.434;2022-07-23T07:53:24;7.18;;;3.55;;
16662;SDS011;8445;51.270;9.434;2022-07-23T07:55:56;3.53;;;2.67;;
16662;SDS011;8445;51.270;9.434;2022-07-23T07:58:27;5.10;;;3.50;;
16662;SDS011;8445;51.270;9.434;2022-07-23T08:00:54;3.83;;;3.13;;
16662;SDS011;8445;51.270;9.434;2022-07-23T08:03:22;3.50;;;2.60;;
16662;SDS011;8445;51.270;9.434;2022-07-23T08:06:00;2.90;;;2.40;;
16662;SDS011;8445;51.270;9.434;2022-07-23T08:08:26;4.10;;;2.72;;
16662;SDS011;8445;51.270;9.434;2022-07-23T08:10:53;5.80;;;2.60;;
16662;SDS011;8445;51.270;9.434;2022-07-23T08:13:25;3.55;;;2.78;;
16662;SDS011;8445;51.270;9.434;2022-07-23T08:15:53;3.88;;;2.60;;
16662;SDS011;8445;51.270;9.434;2022-07-23T08:18:19;6.22;;;2.90;;
16662;SDS011;8445;51.270;9.434;2022-07-23T08:20:45;2.38;;;2.17;;
16662;SDS011;8445;51.270;9.434;2022-07-23T08:23:11;3.15;;;2.67;;
16662;SDS011;8445;51.270;9.434;2022-07-23T08:25:37;2.88;;;2.60;;
16662;SDS011;8445;51.270;9.434;2022-07-23T08:28:08;4.78;;;2.60;;
16662;SDS011;8445;51.270;9.434;2022-07-23T08:30:36;4.70;;;2.70;;
16662;SDS011;8445;51.270;9.434;2022-07-23T08:33:05;4.15;;;3.28;;
16662;SDS011;8445;51.270;9.434;2022-07-23T08:35:37;5.18;;;2.75;;
16662;SDS011;8445;51.270;9.434;2022-07-23T08:38:11;4.10;;;3.28;;
16662;SDS011;8445;51.270;9.434;2022-07-23T08:40:42;5.55;;;3.33;;
16662;SDS011;8445;51.270;9.434;2022-07-23T08:43:21;4.82;;;2.85;;
16662;SDS011;8445;51.270;9.434;2022-07-23T08:45:51;4.45;;;3.10;;
16662;SDS011;8445;51.270;9.434;2022-07-23T08:48:25;3.95;;;2.80;;
16662;SDS011;8445;51.270;9.434;2022-07-23T08:50:58;5.47;;;3.25;;
16662;SDS011;8445;51.270;9.434;2022-07-23T08:53:27;6.38;;;3.25;;
16662;SDS011;8445;51.270;9.434;2022-07-23T08:55:56;6.03;;;3.00;;
16662;SDS011;8445;51.270;9.434;2022-07-23T08:58:24;6.03;;;3.28;;
16662;SDS011;8445;51.270;9.434;2022-07-23T09:00:51;3.92;;;3.20;;
16662;SDS011;8445;51.270;9.434;2022-07-23T09:03:18;6.32;;;3.17;;
16662;SDS011;8445;51.270;9.434;2022-07-23T09:05:48;5.18;;;3.55;;
16662;SDS011;8445;51.270;9.434;2022-07-23T09:08:24;6.85;;;3.38;;
16662;SDS011;8445;51.270;9.434;2022-07-23T09:11:01;4.75;;;3.03;;
16662;SDS011;8445;51.270;9.434;2022-07-23T09:16:12;4.32;;;3.20;;
16662;SDS011;8445;51.270;9.434;2022-07-23T09:21:16;3.40;;;3.10;;
16662;SDS011;8445;51.270;9.434;2022-07-23T09:26:31;4.07;;;2.63;;
16662;SDS011;8445;51.270;9.434;2022-07-23T09:29:07;3.72;;;2.78;;
16662;SDS011;8445;51.270;9.434;2022-07-23T09:31:42;4.38;;;2.88;;
16662;SDS011;8445;51.270;9.434;2022-07-23T09:36:43;3.30;;;2.58;;
16662;SDS011;8445;51.270;9.434;2022-07-23T09:39:10;4.35;;;2.80;;
16662;SDS011;8445;51.270;9.434;2022-07-23T09:41:40;5.47;;;3.05;;
16662;SDS011;8445;51.270;9.434;2022-07-23T09:44:12;3.53;;;3.13;;
16662;SDS011;8445;51.270;9.434;2022-07-23T09:46:47;4.47;;;3.05;;
16662;SDS011;8445;51.270;9.434;2022-07-23T09:49:16;5.88;;;3.10;;
16662;SDS011;8445;51.270;9.434;2022-07-23T09:54:36;6.50;;;3.10;;
16662;SDS011;8445;51.270;9.434;2022-07-23T09:57:08;3.72;;;3.38;;
16662;SDS011;8445;51.270;9.434;2022-07-23T09:59:43;4.55;;;3.30;;
16662;SDS011;8445;51.270;9.434;2022-07-23T10:02:11;3.80;;;2.80;;
16662;SDS011;8445;51.270;9.434;2022-07-23T10:04:56;4.15;;;2.70;;
16662;SDS011;8445;51.270;9.434;2022-07-23T10:07:43;4.93;;;2.70;;
16662;SDS011;8445;51.270;9.434;2022-07-23T10:10:29;3.67;;;2.58;;
16662;SDS011;8445;51.270;9.434;2022-07-23T10:13:26;4.15;;;2.97;;
16662;SDS011;8445;51.270;9.434;2022-07-23T10:16:12;6.43;;;3.00;;
16662;SDS011;8445;51.270;9.434;2022-07-23T10:18:38;4.53;;;2.60;;
16662;SDS011;8445;51.270;9.434;2022-07-23T10:21:05;2.88;;;2.67;;
16662;SDS011;8445;51.270;9.434;2022-07-23T10:26:17;3.35;;;2.10;;
16662;SDS011;8445;51.270;9.434;2022-07-23T10:31:56;2.97;;;2.65;;
16662;SDS011;8445;51.270;9.434;2022-07-23T10:38:01;3.35;;;2.38;;
16662;SDS011;8445;51.270;9.434;2022-07-23T10:43:40;2.50;;;2.30;;
16662;SDS011;8445;51.270;9.434;2022-07-23T10:46:22;3.25;;;2.58;;
16662;SDS011;8445;51.270;9.434;2022-07-23T10:49:20;2.22;;;2.13;;
16662;SDS011;8445;51.270;9.434;2022-07-23T10:54:54;3.50;;;2.40;;
16662;SDS011;8445;51.270;9.434;2022-07-23T10:57:48;3.63;;;2.17;;
16662;SDS011;8445;51.270;9.434;2022-07-23T11:02:51;2.42;;;2.17;;
16662;SDS011;8445;51.270;9.434;2022-07-23T11:05:24;2.78;;;2.33;;
16662;SDS011;8445;51.270;9.434;2022-07-23T11:10:44;4.88;;;2.67;;
16662;SDS011;8445;51.270;9.434;2022-07-23T11:13:36;2.83;;;2.35;;
16662;SDS011;8445;51.270;9.434;2022-07-23T11:31:53;3.78;;;2.53;;
16662;SDS011;8445;51.270;9.434;2022-07-23T11:37:05;6.78;;;2.95;;
16662;SDS011;8445;51.270;9.434;2022-07-23T11:39:37;4.60;;;2.50;;
16662;SDS011;8445;51.270;9.434;2022-07-23T11:42:05;2.75;;;2.42;;
16662;SDS011;8445;51.270;9.434;2022-07-23T11:44:36;4.50;;;2.67;;
16662;SDS011;8445;51.270;9.434;2022-07-23T11:47:10;2.90;;;2.13;;
16662;SDS011;8445;51.270;9.434;2022-07-23T11:49:39;2.65;;;2.33;;
16662;SDS011;8445;51.270;9.434;2022-07-23T11:52:17;2.90;;;2.58;;
16662;SDS011;8445;51.270;9.434;2022-07-23T11:54:47;4.45;;;2.95;;
16662;SDS011;8445;51.270;9.434;2022-07-23T11:57:16;3.78;;;2.45;;
16662;SDS011;8445;51.270;9.434;2022-07-23T11:59:43;4.55;;;2.42;;
16662;SDS011;8445;51.270;9.434;2022-07-23T12:02:14;2.50;;;2.10;;
16662;SDS011;8445;51.270;9.434;2022-07-23T12:10:09;2.65;;;2.42;;
16662;SDS011;8445;51.270;9.434;2022-07-23T12:12:49;2.95;;;2.75;;
16662;SDS011;8445;51.270;9.434;2022-07-23T12:15:25;3.67;;;2.65;;
16662;SDS011;8445;51.270;9.434;2022-07-23T12:18:00;5.47;;;2.63;;
16662;SDS011;8445;51.270;9.434;2022-07-23T12:20:31;4.93;;;2.50;;
16662;SDS011;8445;51.270;9.434;2022-07-23T12:23:09;5.15;;;2.70;;
16662;SDS011;8445;51.270;9.434;2022-07-23T12:25:44;2.85;;;2.60;;
16662;SDS011;8445;51.270;9.434;2022-07-23T12:30:48;3.28;;;2.40;;
16662;SDS011;8445;51.270;9.434;2022-07-23T12:33:30;4.25;;;2.90;;
16662;SDS011;8445;51.270;9.434;2022-07-23T12:36:03;3.58;;;2.50;;
16662;SDS011;8445;51.270;9.434;2022-07-23T12:38:40;3.50;;;2.90;;
16662;SDS011;8445;51.270;9.434;2022-07-23T12:41:09;3.47;;;2.88;;
16662;SDS011;8445;51.270;9.434;2022-07-23T12:43:42;3.42;;;2.45;;
16662;SDS011;8445;51.270;9.434;2022-07-23T12:46:17;3.78;;;2.58;;
16662;SDS011;8445;51.270;9.434;2022-07-23T12:51:15;3.00;;;2.70;;
16662;SDS011;8445;51.270;9.434;2022-07-23T12:56:37;3.50;;;2.88;;
16662;SDS011;8445;51.270;9.434;2022-07-23T12:59:11;4.35;;;2.80;;
16662;SDS011;8445;51.270;9.434;2022-07-23T13:01:43;5.22;;;2.72;;
16662;SDS011;8445;51.270;9.434;2022-07-23T13:04:27;4.10;;;2.88;;
16662;SDS011;8445;51.270;9.434;2022-07-23T13:06:57;3.05;;;2.75;;
16662;SDS011;8445;51.270;9.434;2022-07-23T13:09:29;4.20;;;2.95;;
16662;SDS011;8445;51.270;9.434;2022-07-23T13:11:57;4.78;;;2.65;;
16662;SDS011;8445;51.270;9.434;2022-07-23T13:14:26;4.72;;;2.55;;
16662;SDS011;8445;51.270;9.434;2022-07-23T13:16:56;4.88;;;3.08;;
16662;SDS011;8445;51.270;9.434;2022-07-23T13:19:22;4.25;;;2.72;;
16662;SDS011;8445;51.270;9.434;2022-07-23T13:21:49;2.88;;;2.58;;
16662;SDS011;8445;51.270;9.434;2022-07-23T13:24:20;6.28;;;2.60;;
16662;SDS011;8445;51.270;9.434;2022-07-23T13:26:46;3.58;;;2.92;;
16662;SDS011;8445;51.270;9.434;2022-07-23T13:29:19;4.32;;;2.85;;
16662;SDS011;8445;51.270;9.434;2022-07-23T13:32:00;3.03;;;2.65;;
16662;SDS011;8445;51.270;9.434;2022-07-23T13:34:25;3.03;;;2.72;;
16662;SDS011;8445;51.270;9.434;2022-07-23T13:36:51;4.00;;;3.20;;
16662;SDS011;8445;51.270;9.434;2022-07-23T13:39:22;3.00;;;2.70;;
16662;SDS011;8445;51.270;9.434;2022-07-23T13:41:47;5.40;;;3.22;;
16662;SDS011;8445;51.270;9.434;2022-07-23T13:44:13;3.78;;;3.40;;
16662;SDS011;8445;51.270;9.434;2022-07-23T13:46:39;3.83;;;2.92;;
16662;SDS011;8445;51.270;9.434;2022-07-23T13:49:05;3.63;;;3.30;;
16662;SDS011;8445;51.270;9.434;2022-07-23T13:51:31;3.70;;;3.17;;
16662;SDS011;8445;51.270;9.434;2022-07-23T13:53:58;6.35;;;3.20;;
16662;SDS011;8445;51.270;9.434;2022-07-23T13:56:27;4.50;;;3.53;;
16662;SDS011;8445;51.270;9.434;2022-07-23T13:58:53;8.32;;;4.00;;
16662;SDS011;8445;51.270;9.434;2022-07-23T14:01:20;3.42;;;3.08;;
16662;SDS011;8445;51.270;9.434;2022-07-23T14:03:49;5.13;;;3.72;;
16662;SDS011;8445;51.270;9.434;2022-07-23T14:06:15;5.78;;;3.67;;
16662;SDS011;8445;51.270;9.434;2022-07-23T14:08:42;5.57;;;2.78;;
16662;SDS011;8445;51.270;9.434;2022-07-23T14:11:09;5.07;;;3.25;;
16662;SDS011;8445;51.270;9.434;2022-07-23T14:13:35;3.38;;;2.88;;
16662;SDS011;8445;51.270;9.434;2022-07-23T14:16:01;7.72;;;3.10;;
16662;SDS011;8445;51.270;9.434;2022-07-23T14:18:29;4.50;;;3.30;;
16662;SDS011;8445;51.270;9.434;2022-07-23T14:21:01;3.50;;;3.15;;
16662;SDS011;8445;51.270;9.434;2022-07-23T14:23:29;7.25;;;6.10;;
16662;SDS011;8445;51.270;9.434;2022-07-23T14:25:58;9.63;;;5.45;;
16662;SDS011;8445;51.270;9.434;2022-07-23T14:28:24;4.22;;;3.33;;
16662;SDS011;8445;51.270;9.434;2022-07-23T14:30:50;4.05;;;3.28;;
16662;SDS011;8445;51.270;9.434;2022-07-23T14:33:16;3.95;;;3.40;;
16662;SDS011;8445;51.270;9.434;2022-07-23T14:35:42;3.67;;;3.00;;
16662;SDS011;8445;51.270;9.434;2022-07-23T14:38:08;6.75;;;3.13;;
16662;SDS011;8445;51.270;9.434;2022-07-23T14:40:34;4.25;;;3.10;;
16662;SDS011;8445;51.270;9.434;2022-07-23T14:43:00;7.13;;;4.95;;
16662;SDS011;8445;51.270;9.434;2022-07-23T14:45:26;5.70;;;3.65;;
16662;SDS011;8445;51.270;9.434;2022-07-23T14:47:53;3.17;;;2.88;;
16662;SDS011;8445;51.270;9.434;2022-07-23T14:50:19;5.15;;;3.05;;
16662;SDS011;8445;51.270;9.434;2022-07-23T14:52:45;5.10;;;2.85;;
16662;SDS011;8445;51.270;9.434;2022-07-23T14:55:11;4.70;;;2.75;;
16662;SDS011;8445;51.270;9.434;2022-07-23T14:57:37;2.88;;;2.58;;
16662;SDS011;8445;51.270;9.434;2022-07-23T15:00:04;2.65;;;2.13;;
16662;SDS011;8445;51.270;9.434;2022-07-23T15:02:31;6.95;;;4.25;;
16662;SDS011;8445;51.270;9.434;2022-07-23T15:04:57;3.40;;;2.50;;
16662;SDS011;8445;51.270;9.434;2022-07-23T15:07:26;2.30;;;2.10;;
16662;SDS011;8445;51.270;9.434;2022-07-23T15:09:54;2.40;;;2.20;;
16662;SDS011;8445;51.270;9.434;2022-07-23T15:12:20;3.05;;;2.50;;
16662;SDS011;8445;51.270;9.434;2022-07-23T15:14:54;3.88;;;2.50;;
16662;SDS011;8445;51.270;9.434;2022-07-23T15:17:29;5.85;;;2.58;;
16662;SDS011;8445;51.270;9.434;2022-07-23T15:20:01;2.72;;;2.22;;
16662;SDS011;8445;51.270;9.434;2022-07-23T15:22:27;3.88;;;3.15;;
16662;SDS011;8445;51.270;9.434;2022-07-23T15:24:53;3.58;;;2.83;;
16662;SDS011;8445;51.270;9.434;2022-07-23T15:27:19;8.90;;;4.10;;
16662;SDS011;8445;51.270;9.434;2022-07-23T15:29:45;5.53;;;3.35;;
16662;SDS011;8445;51.270;9.434;2022-07-23T15:32:11;3.95;;;2.72;;
16662;SDS011;8445;51.270;9.434;2022-07-23T15:34:37;3.33;;;2.58;;
16662;SDS011;8445;51.270;9.434;2022-07-23T15:37:04;2.80;;;2.40;;
16662;SDS011;8445;51.270;9.434;2022-07-23T15:39:31;6.18;;;2.72;;
16662;SDS011;8445;51.270;9.434;2022-07-23T15:41:58;3.30;;;3.00;;
16662;SDS011;8445;51.270;9.434;2022-07-23T15:44:25;2.60;;;2.40;;
16662;SDS011;8445;51.270;9.434;2022-07-23T15:46:52;5.20;;;2.17;;
16662;SDS011;8445;51.270;9.434;2022-07-23T15:49:18;2.75;;;2.30;;
16662;SDS011;8445;51.270;9.434;2022-07-23T15:51:44;3.45;;;2.33;;
16662;SDS011;8445;51.270;9.434;2022-07-23T15:54:10;2.25;;;2.05;;
16662;SDS011;8445;51.270;9.434;2022-07-23T15:56:36;2.88;;;2.53;;
16662;SDS011;8445;51.270;9.434;2022-07-23T15:59:02;4.25;;;2.50;;
16662;SDS011;8445;51.270;9.434;2022-07-23T16:01:29;3.65;;;2.03;;
16662;SDS011;8445;51.270;9.434;2022-07-23T16:03:55;3.08;;;2.25;;
16662;SDS011;8445;51.270;9.434;2022-07-23T16:06:24;11.55;;;5.97;;